Time;durP1;ratioP1;P1;durP2;ratioP2;P2;SDS_P1;SDS_P2;PMS_P1;PMS_P2;Temp;Humidity;BMP_temperature;BMP_pressure;BME280_temperature;BME280_humidity;BME280_pressure;Samples;Min_cycle;Max_cycle;Signal;HPM_P1;HPM_P2
2023/09/21 00:01:18;;;;;;;2.23;1.60;;;18.40;1.00;;;;;;4999245;28;20579;-82
2023/09/21 00:03:44;;;;;;;5.20;1.53;;;18.30;1.00;;;;;;5001391;28;20256;-82
2023/09/21 00:06:10;;;;;;;1.93;1.50;;;18.50;1.00;;;;;;4999901;28;20685;-82
2023/09/21 00:08:35;;;;;;;2.67;1.50;;;18.30;1.00;;;;;;5003952;28;20185;-82
2023/09/21 00:11:03;;;;;;;3.77;1.37;;;18.30;1.00;;;;;;5001714;28;20228;-82
2023/09/21 00:13:31;;;;;;;3.63;1.77;;;18.30;1.00;;;;;;5000506;28;20181;-82
2023/09/21 00:15:59;;;;;;;2.17;1.50;;;18.30;1.00;;;;;;5000971;28;20193;-82
2023/09/21 00:18:26;;;;;;;5.17;1.70;;;18.40;1.00;;;;;;5000339;28;20170;-82
2023/09/21 00:20:52;;;;;;;4.80;1.73;;;18.40;1.00;;;;;;5000235;28;20177;-82
2023/09/21 00:23:21;;;;;;;1.90;1.53;;;18.30;1.00;;;;;;5000099;28;20181;-82
2023/09/21 00:25:47;;;;;;;3.90;1.73;;;18.40;1.00;;;;;;4998689;28;20272;-82
2023/09/21 00:28:14;;;;;;;2.63;1.70;;;18.30;1.00;;;;;;4998615;28;20560;-82
2023/09/21 00:30:41;;;;;;;4.10;1.70;;;18.30;1.00;;;;;;4999352;28;20189;-82
2023/09/21 00:33:07;;;;;;;3.63;1.87;;;18.30;1.00;;;;;;4999553;28;20194;-82
2023/09/21 00:35:33;;;;;;;2.83;1.60;;;18.40;1.00;;;;;;4998613;28;20199;-82
2023/09/21 00:38:01;;;;;;;3.07;1.73;;;18.30;1.00;;;;;;5000177;28;20198;-82
2023/09/21 00:40:26;;;;;;;3.27;2.00;;;18.40;1.00;;;;;;5000237;28;20173;-82
2023/09/21 00:42:52;;;;;;;4.43;1.50;;;18.40;1.00;;;;;;4998392;28;20201;-82
2023/09/21 00:45:21;;;;;;;2.07;1.63;;;18.40;1.00;;;;;;4998659;28;20201;-82
2023/09/21 00:47:50;;;;;;;1.93;1.47;;;18.40;1.00;;;;;;4998272;28;20193;-82
2023/09/21 00:50:21;;;;;;;3.63;1.30;;;18.40;1.00;;;;;;5000344;28;20176;-84
2023/09/21 00:52:54;;;;;;;2.93;1.60;;;18.40;1.00;;;;;;4998378;28;20213;-82
2023/09/21 00:55:23;;;;;;;3.30;1.77;;;18.40;1.00;;;;;;4998503;28;20300;-82
2023/09/21 00:57:55;;;;;;;3.13;1.63;;;18.40;1.00;;;;;;4999813;28;20187;-82
2023/09/21 01:00:25;;;;;;;5.00;1.83;;;18.40;1.00;;;;;;4999210;28;20158;-82
2023/09/21 01:02:53;;;;;;;3.50;1.50;;;18.40;1.00;;;;;;5000235;28;20288;-82
2023/09/21 01:05:21;;;;;;;2.57;1.60;;;18.30;1.00;;;;;;4998311;28;20218;-82
2023/09/21 01:07:48;;;;;;;2.90;1.70;;;18.40;1.00;;;;;;4999963;28;20245;-82
2023/09/21 01:10:15;;;;;;;5.83;1.43;;;18.40;1.00;;;;;;4999595;28;20178;-82
2023/09/21 01:12:44;;;;;;;3.40;1.60;;;18.40;1.00;;;;;;4998610;28;20257;-82
2023/09/21 01:15:10;;;;;;;2.70;1.47;;;18.40;1.00;;;;;;4998343;28;20181;-82
2023/09/21 01:17:39;;;;;;;2.63;1.60;;;18.40;1.00;;;;;;4999502;28;20184;-82
2023/09/21 01:20:22;;;;;;;6.03;1.73;;;18.40;1.00;;;;;;4999356;28;20240;-82
2023/09/21 01:23:11;;;;;;;2.37;1.77;;;18.30;1.00;;;;;;4999493;28;20284;-82
2023/09/21 01:25:41;;;;;;;3.33;1.73;;;18.30;1.00;;;;;;4998531;28;20204;-82
2023/09/21 01:28:09;;;;;;;1.90;1.47;;;18.40;1.00;;;;;;5000111;28;20158;-82
2023/09/21 01:30:35;;;;;;;2.67;1.43;;;18.40;1.00;;;;;;4998300;28;20174;-82
2023/09/21 01:33:04;;;;;;;3.80;1.30;;;18.30;1.00;;;;;;5000164;28;20204;-82
2023/09/21 01:35:31;;;;;;;2.90;1.40;;;18.30;1.00;;;;;;4997805;28;20525;-82
2023/09/21 01:37:57;;;;;;;3.43;1.63;;;18.30;1.00;;;;;;4999746;28;20182;-82
2023/09/21 01:40:23;;;;;;;2.67;1.73;;;18.30;1.00;;;;;;4999163;28;20189;-79
2023/09/21 01:42:50;;;;;;;3.77;1.63;;;18.30;1.00;;;;;;4998318;28;20205;-79
2023/09/21 01:45:16;;;;;;;4.63;1.60;;;18.30;1.00;;;;;;4998283;28;20200;-80
2023/09/21 01:47:42;;;;;;;3.97;1.60;;;18.30;1.00;;;;;;4997716;28;20262;-79
2023/09/21 01:50:11;;;;;;;1.70;1.30;;;18.30;1.00;;;;;;4998479;28;20185;-79
2023/09/21 01:52:38;;;;;;;3.27;1.67;;;18.30;1.00;;;;;;4997623;28;20197;-80
2023/09/21 01:55:06;;;;;;;2.03;1.50;;;18.40;1.00;;;;;;4997372;28;20181;-79
2023/09/21 01:57:33;;;;;;;3.30;1.07;;;18.20;1.00;;;;;;4998260;28;20173;-79
2023/09/21 02:00:01;;;;;;;3.57;1.30;;;18.30;1.00;;;;;;4998627;28;20638;-81
2023/09/21 02:02:26;;;;;;;3.20;1.40;;;18.20;1.00;;;;;;4997693;28;20677;-80
2023/09/21 02:04:52;;;;;;;4.73;1.83;;;18.20;1.00;;;;;;4997192;28;20208;-80
2023/09/21 02:07:18;;;;;;;2.27;1.80;;;18.20;1.00;;;;;;4997009;28;20685;-80
2023/09/21 02:09:43;;;;;;;3.07;1.30;;;18.40;1.00;;;;;;4996990;28;20205;-80
2023/09/21 02:12:10;;;;;;;2.67;1.60;;;18.20;1.00;;;;;;4996477;28;20229;-80
2023/09/21 02:14:36;;;;;;;2.30;1.57;;;18.20;1.00;;;;;;4997456;28;20236;-80
2023/09/21 02:17:01;;;;;;;4.27;1.80;;;18.20;1.00;;;;;;4996743;28;20185;-80
2023/09/21 02:19:37;;;;;;;3.43;1.33;;;18.20;1.00;;;;;;4996843;28;20188;-80
2023/09/21 02:22:06;;;;;;;3.13;1.90;;;18.20;1.00;;;;;;4996945;28;20212;-81
2023/09/21 02:24:32;;;;;;;1.83;1.47;;;18.20;1.00;;;;;;4998446;28;20292;-80
2023/09/21 02:26:57;;;;;;;2.60;1.60;;;18.20;1.00;;;;;;4996063;28;20201;-80
2023/09/21 02:29:23;;;;;;;2.93;1.37;;;18.20;1.00;;;;;;4996811;28;20661;-80
2023/09/21 02:31:49;;;;;;;2.90;1.73;;;18.20;1.00;;;;;;4998474;28;20190;-80
2023/09/21 02:34:15;;;;;;;5.40;1.50;;;18.20;1.00;;;;;;4998319;28;20653;-80
2023/09/21 02:36:42;;;;;;;2.00;1.57;;;18.10;1.00;;;;;;4996400;28;20268;-80
2023/09/21 02:39:08;;;;;;;2.23;1.47;;;18.20;1.00;;;;;;4996326;28;20688;-80
2023/09/21 02:41:34;;;;;;;2.30;1.50;;;18.20;1.00;;;;;;4996636;28;20208;-81
2023/09/21 02:44:00;;;;;;;2.53;1.53;;;18.30;99.90;;;;;;4996160;28;20201;-81
2023/09/21 02:46:28;;;;;;;3.50;1.70;;;18.20;99.90;;;;;;4997534;28;20181;-80
2023/09/21 02:48:54;;;;;;;3.90;1.60;;;18.20;99.90;;;;;;4996552;28;20170;-81
2023/09/21 02:51:20;;;;;;;3.83;1.77;;;18.20;99.90;;;;;;4996437;28;20697;-81
2023/09/21 02:53:46;;;;;;;2.57;1.40;;;18.20;1.00;;;;;;4996132;28;20204;-81
2023/09/21 02:56:12;;;;;;;2.73;1.60;;;18.20;99.90;;;;;;4996444;28;20174;-81
2023/09/21 02:58:39;;;;;;;5.33;1.80;;;18.10;99.90;;;;;;4996222;28;20261;-80
2023/09/21 03:01:05;;;;;;;2.90;1.80;;;18.10;99.90;;;;;;4995250;28;20607;-80
2023/09/21 03:03:31;;;;;;;4.97;1.57;;;18.10;1.00;;;;;;4997517;28;20253;-80
2023/09/21 03:05:56;;;;;;;1.93;1.50;;;18.10;1.00;;;;;;4996529;28;20573;-81
2023/09/21 03:08:22;;;;;;;5.77;1.80;;;18.30;1.00;;;;;;4996480;28;20186;-81
2023/09/21 03:10:50;;;;;;;3.33;1.70;;;18.10;1.00;;;;;;4997074;28;20192;-80
2023/09/21 03:13:17;;;;;;;2.33;1.40;;;18.10;1.00;;;;;;4995865;28;20189;-81
2023/09/21 03:15:50;;;;;;;4.13;1.50;;;18.10;1.00;;;;;;4997545;28;20174;-80
2023/09/21 03:18:18;;;;;;;3.93;1.50;;;18.10;1.00;;;;;;4996331;28;20184;-81
2023/09/21 03:20:44;;;;;;;2.63;1.50;;;17.90;1.00;;;;;;4997420;28;20667;-80
2023/09/21 03:23:12;;;;;;;2.47;1.60;;;18.10;1.00;;;;;;4995710;28;20201;-80
2023/09/21 03:25:40;;;;;;;4.00;1.70;;;18.10;1.00;;;;;;4995563;28;20241;-81
2023/09/21 03:28:13;;;;;;;4.77;1.67;;;18.10;1.00;;;;;;4996642;28;20646;-81
2023/09/21 03:30:43;;;;;;;3.60;1.47;;;18.10;1.00;;;;;;4996798;28;20184;-81
2023/09/21 03:33:09;;;;;;;2.00;1.40;;;18.10;1.00;;;;;;4997391;28;20293;-80
2023/09/21 03:35:37;;;;;;;3.47;1.77;;;18.10;1.00;;;;;;4997095;28;20585;-80
2023/09/21 03:38:06;;;;;;;2.43;1.60;;;18.10;1.00;;;;;;4996719;28;20551;-80
2023/09/21 03:40:32;;;;;;;6.30;2.00;;;18.00;1.00;;;;;;4996022;28;20169;-81
2023/09/21 03:42:59;;;;;;;3.27;1.70;;;18.10;1.00;;;;;;4995130;28;20197;-80
2023/09/21 03:45:25;;;;;;;3.70;1.70;;;18.10;1.00;;;;;;4995225;28;20344;-82
2023/09/21 03:47:54;;;;;;;2.07;1.73;;;17.90;1.00;;;;;;4995071;28;20637;-80
2023/09/21 03:50:25;;;;;;;3.47;1.60;;;17.90;1.00;;;;;;4995490;28;20178;-80
2023/09/21 03:52:52;;;;;;;10.80;2.17;;;18.00;1.00;;;;;;4995588;28;20190;-81
2023/09/21 03:55:17;;;;;;;4.23;1.93;;;18.10;1.00;;;;;;4997002;28;20612;-80
2023/09/21 03:57:47;;;;;;;3.03;1.70;;;18.00;1.00;;;;;;4995720;28;20201;-80
2023/09/21 04:01:04;;;;;;;3.23;1.83;;;18.00;1.00;;;;;;4996845;28;20646;-80
2023/09/21 04:03:08;;;;;;;2.47;1.63;;;18.10;1.00;;;;;;4991300;28;20272;-80
2023/09/21 04:05:35;;;;;;;4.43;1.80;;;18.10;1.00;;;;;;4995836;28;20332;-81
2023/09/21 04:08:01;;;;;;;2.97;1.70;;;18.10;1.00;;;;;;4995423;28;20173;-81
2023/09/21 04:10:27;;;;;;;2.87;1.60;;;18.10;1.00;;;;;;4995282;28;20174;-80
2023/09/21 04:12:56;;;;;;;2.57;1.47;;;18.10;1.00;;;;;;4994203;28;20754;-82
2023/09/21 04:15:23;;;;;;;4.33;1.60;;;18.00;1.00;;;;;;4994966;28;20174;-81
2023/09/21 04:17:49;;;;;;;3.23;1.70;;;18.20;1.00;;;;;;4996288;28;20181;-80
2023/09/21 04:20:16;;;;;;;5.13;1.60;;;18.10;1.00;;;;;;4994837;28;20181;-81
2023/09/21 04:22:43;;;;;;;8.17;1.80;;;18.20;1.00;;;;;;4996229;28;20280;-80
2023/09/21 04:25:14;;;;;;;2.77;1.77;;;18.20;99.90;;;;;;4995229;28;20550;-80
2023/09/21 04:27:41;;;;;;;3.40;2.17;;;18.20;99.90;;;;;;4995320;28;20178;-80
2023/09/21 04:30:09;;;;;;;1.80;1.60;;;18.20;99.90;;;;;;4996709;28;20248;-82
2023/09/21 04:32:36;;;;;;;5.07;1.73;;;18.20;99.90;;;;;;4994812;28;20197;-80
2023/09/21 04:35:03;;;;;;;2.00;1.50;;;18.30;99.90;;;;;;4995121;28;20173;-80
2023/09/21 04:37:29;;;;;;;6.30;1.80;;;18.30;99.90;;;;;;4999445;28;20172;-80
2023/09/21 04:39:55;;;;;;;2.47;1.70;;;18.20;99.90;;;;;;4999607;28;20600;-80
2023/09/21 04:42:20;;;;;;;3.23;1.40;;;18.30;99.90;;;;;;5000115;28;20563;-80
2023/09/21 04:44:46;;;;;;;5.87;1.50;;;18.30;99.90;;;;;;4998318;28;20212;-80
2023/09/21 04:47:11;;;;;;;1.63;1.43;;;18.40;99.90;;;;;;4999795;28;20548;-80
2023/09/21 04:49:37;;;;;;;2.73;1.37;;;18.30;99.90;;;;;;5000323;28;20188;-80
2023/09/21 04:52:04;;;;;;;5.05;1.83;;;18.30;99.90;;;;;;4997525;28;20455;-78
2023/09/21 04:54:29;;;;;;;5.00;1.73;;;18.30;99.90;;;;;;4994995;28;20178;-78
2023/09/21 04:56:55;;;;;;;3.00;1.80;;;18.20;99.90;;;;;;4995978;28;20520;-77
2023/09/21 04:59:21;;;;;;;5.23;1.87;;;18.30;99.90;;;;;;4994591;28;20260;-77
2023/09/21 05:01:47;;;;;;;4.17;1.70;;;18.20;99.90;;;;;;4996273;28;20273;-78
2023/09/21 05:04:13;;;;;;;2.00;1.50;;;18.20;99.90;;;;;;4997165;28;20215;-78
2023/09/21 05:06:39;;;;;;;4.13;1.80;;;18.20;99.90;;;;;;4997809;28;20244;-78
2023/09/21 05:09:04;;;;;;;4.57;1.90;;;18.10;99.90;;;;;;4997392;28;20177;-79
2023/09/21 05:11:38;;;;;;;5.20;1.60;;;18.20;99.90;;;;;;4997234;28;20201;-79
2023/09/21 05:14:05;;;;;;;4.20;1.70;;;18.10;99.90;;;;;;4998043;28;20257;-78
2023/09/21 05:16:32;;;;;;;5.13;1.47;;;18.20;99.90;;;;;;4997997;28;20719;-80
2023/09/21 05:18:57;;;;;;;2.60;1.83;;;18.20;99.90;;;;;;4995263;28;20181;-78
2023/09/21 05:21:23;;;;;;;2.97;1.70;;;18.20;1.00;;;;;;4995561;28;20283;-78
2023/09/21 05:23:48;;;;;;;3.60;1.90;;;18.20;99.90;;;;;;4996257;28;20277;-77
2023/09/21 05:26:14;;;;;;;2.27;1.57;;;18.20;1.00;;;;;;4995799;28;20200;-78
2023/09/21 05:28:39;;;;;;;4.80;1.80;;;18.10;99.90;;;;;;4996134;28;20177;-78
2023/09/21 05:31:05;;;;;;;5.43;1.70;;;18.10;1.00;;;;;;4996236;28;20194;-78
2023/09/21 05:33:31;;;;;;;2.90;1.50;;;18.20;1.00;;;;;;4996381;28;20174;-78
2023/09/21 05:35:56;;;;;;;2.87;1.70;;;18.10;1.00;;;;;;4994074;28;20170;-78
2023/09/21 05:38:22;;;;;;;5.37;1.90;;;18.20;1.00;;;;;;4994255;28;20247;-78
2023/09/21 05:40:48;;;;;;;4.17;1.80;;;18.10;1.00;;;;;;4995836;28;20697;-79
2023/09/21 05:43:15;;;;;;;3.50;1.70;;;18.10;1.00;;;;;;4995485;28;20248;-78
2023/09/21 05:45:40;;;;;;;2.10;1.60;;;18.20;1.00;;;;;;4994025;28;20292;-78
2023/09/21 05:48:14;;;;;;;4.60;1.83;;;18.10;1.00;;;;;;4994934;28;20661;-77
2023/09/21 05:50:41;;;;;;;2.87;1.50;;;18.10;1.00;;;;;;4996281;28;20661;-78
2023/09/21 05:53:07;;;;;;;3.80;1.93;;;18.10;1.00;;;;;;4996165;28;20185;-77
2023/09/21 05:55:32;;;;;;;1.97;1.47;;;18.10;1.00;;;;;;4996122;28;20205;-78
2023/09/21 05:57:58;;;;;;;5.37;1.90;;;18.10;1.00;;;;;;4995877;28;20181;-78
2023/09/21 06:00:23;;;;;;;3.47;1.90;;;18.10;1.00;;;;;;4995710;28;20181;-78
2023/09/21 06:02:49;;;;;;;4.37;1.90;;;18.10;1.00;;;;;;4995191;28;20240;-78
2023/09/21 06:05:14;;;;;;;2.70;1.63;;;18.10;1.00;;;;;;4995530;28;20562;-78
2023/09/21 06:07:40;;;;;;;4.83;1.80;;;18.10;1.00;;;;;;4994173;28;20178;-78
2023/09/21 06:10:06;;;;;;;4.57;1.90;;;18.10;1.00;;;;;;4995555;28;20216;-78
2023/09/21 06:12:32;;;;;;;3.67;1.70;;;18.10;1.00;;;;;;4994047;28;20236;-78
2023/09/21 06:14:58;;;;;;;1.80;1.40;;;18.20;1.00;;;;;;4995343;28;20250;-77
2023/09/21 06:17:24;;;;;;;3.40;1.80;;;18.20;1.00;;;;;;4993818;28;20232;-78
2023/09/21 06:19:52;;;;;;;4.83;1.90;;;18.20;1.00;;;;;;4995561;28;20174;-77
2023/09/21 06:22:17;;;;;;;4.13;2.43;;;18.20;1.00;;;;;;4993642;28;20204;-77
2023/09/21 06:24:44;;;;;;;4.77;1.97;;;18.20;1.00;;;;;;4993811;28;20201;-77
2023/09/21 06:27:10;;;;;;;4.50;2.00;;;18.20;1.00;;;;;;4995112;28;20663;-77
2023/09/21 06:29:36;;;;;;;3.77;2.13;;;18.30;1.00;;;;;;4993636;28;20174;-76
2023/09/21 06:32:07;;;;;;;2.30;1.50;;;18.30;1.00;;;;;;4995319;28;20185;-78
2023/09/21 06:34:33;;;;;;;2.17;1.70;;;18.20;1.00;;;;;;4994377;28;20276;-78
2023/09/21 06:36:59;;;;;;;4.03;2.00;;;18.40;1.00;;;;;;4993368;28;20189;-78
2023/09/21 06:39:25;;;;;;;2.20;1.67;;;18.30;1.00;;;;;;4994998;28;20205;-78
2023/09/21 06:41:50;;;;;;;3.63;1.70;;;18.30;1.00;;;;;;4993752;28;20204;-78
2023/09/21 06:44:18;;;;;;;4.23;2.03;;;18.30;1.00;;;;;;4994616;28;20240;-78
2023/09/21 06:46:44;;;;;;;3.43;1.90;;;18.30;1.00;;;;;;4994735;28;20169;-78
2023/09/21 06:49:10;;;;;;;2.07;1.80;;;18.30;1.00;;;;;;4993477;28;20292;-78
2023/09/21 06:51:36;;;;;;;5.00;1.80;;;18.40;1.00;;;;;;4994890;28;20632;-78
2023/09/21 06:54:01;;;;;;;3.10;1.80;;;18.40;1.00;;;;;;4995142;28;20177;-78
2023/09/21 06:56:31;;;;;;;3.57;1.63;;;18.40;1.00;;;;;;4995831;28;20184;-78
2023/09/21 06:58:57;;;;;;;3.57;2.07;;;18.30;1.00;;;;;;4992906;28;20181;-78
2023/09/21 07:01:26;;;;;;;3.20;1.70;;;18.50;1.00;;;;;;4995611;28;20197;-77
2023/09/21 07:03:51;;;;;;;4.43;1.63;;;18.40;1.00;;;;;;4993590;28;20177;-78
2023/09/21 07:06:19;;;;;;;3.50;1.83;;;18.40;1.00;;;;;;4994701;28;20174;-78
2023/09/21 07:08:46;;;;;;;5.33;2.10;;;18.40;1.00;;;;;;4994263;28;20191;-78
2023/09/21 07:11:12;;;;;;;3.77;1.87;;;18.50;1.00;;;;;;4992860;28;20215;-78
2023/09/21 07:13:38;;;;;;;4.70;2.10;;;18.50;1.00;;;;;;4993028;28;20174;-78
2023/09/21 07:16:04;;;;;;;4.70;1.77;;;18.60;1.00;;;;;;4994479;28;20178;-78
2023/09/21 07:18:29;;;;;;;3.80;2.43;;;18.70;1.00;;;;;;4994834;28;20268;-78
2023/09/21 07:20:55;;;;;;;3.40;1.93;;;18.70;1.00;;;;;;4993984;28;20252;-78
2023/09/21 07:23:20;;;;;;;3.33;1.63;;;18.70;1.00;;;;;;4992846;28;20268;-78
2023/09/21 07:25:46;;;;;;;3.53;1.60;;;18.70;1.00;;;;;;4994137;28;20248;-78
2023/09/21 07:28:11;;;;;;;3.07;1.70;;;18.80;1.00;;;;;;4994491;28;20170;-79
2023/09/21 07:30:37;;;;;;;4.00;1.43;;;18.90;1.00;;;;;;4993302;28;20181;-78
2023/09/21 07:33:04;;;;;;;6.97;2.00;;;18.90;1.00;;;;;;4994217;28;20518;-78
2023/09/21 07:35:30;;;;;;;27.67;3.03;;;18.80;1.00;;;;;;4994254;28;20252;-79
2023/09/21 07:37:56;;;;;;;2.43;1.80;;;19.00;1.00;;;;;;4992833;28;20217;-78
2023/09/21 07:40:22;;;;;;;12.10;2.57;;;19.00;1.00;;;;;;4993121;28;20235;-75
2023/09/21 07:42:51;;;;;;;4.33;1.87;;;19.10;1.00;;;;;;4991451;28;20288;-76
2023/09/21 07:45:18;;;;;;;9.33;2.40;;;19.20;1.00;;;;;;4991353;28;20212;-75
2023/09/21 07:47:45;;;;;;;3.20;1.70;;;19.20;1.00;;;;;;4991617;28;20544;-76
2023/09/21 07:50:11;;;;;;;4.07;1.83;;;19.20;1.00;;;;;;4992958;28;20172;-76
2023/09/21 07:52:37;;;;;;;3.17;1.80;;;19.20;1.00;;;;;;4992780;28;20186;-75
2023/09/21 07:55:03;;;;;;;2.57;1.70;;;19.20;1.00;;;;;;4992776;28;20180;-76
2023/09/21 07:57:33;;;;;;;3.60;1.90;;;19.20;1.00;;;;;;4992364;28;20180;-76
2023/09/21 07:59:59;;;;;;;3.80;1.93;;;19.20;1.00;;;;;;4990969;28;20177;-76
2023/09/21 08:02:25;;;;;;;5.87;2.00;;;19.30;1.00;;;;;;4992089;28;20193;-75
2023/09/21 08:04:50;;;;;;;4.00;1.87;;;19.40;1.00;;;;;;4991355;28;20201;-76
2023/09/21 08:07:23;;;;;;;6.37;2.07;;;19.40;1.00;;;;;;4991483;28;20549;-75
2023/09/21 08:09:48;;;;;;;4.37;1.80;;;19.50;1.00;;;;;;4992683;28;20209;-75
2023/09/21 08:12:14;;;;;;;2.87;1.77;;;19.50;1.00;;;;;;4995999;28;20219;-75
2023/09/21 08:14:39;;;;;;;3.70;1.80;;;19.60;1.00;;;;;;4995037;28;20551;-75
2023/09/21 08:17:07;;;;;;;3.50;2.00;;;19.70;1.00;;;;;;4996312;28;20186;-76
2023/09/21 08:19:35;;;;;;;1.97;1.60;;;19.70;1.00;;;;;;4996256;28;20178;-75
2023/09/21 08:22:01;;;;;;;2.83;1.80;;;19.80;1.00;;;;;;4994829;28;20204;-75
2023/09/21 08:24:27;;;;;;;3.80;1.83;;;19.80;1.00;;;;;;4996042;28;20201;-75
2023/09/21 08:26:52;;;;;;;4.50;1.80;;;19.90;1.00;;;;;;4996206;28;20174;-75
2023/09/21 08:29:21;;;;;;;4.83;1.83;;;19.90;1.00;;;;;;4994766;28;20209;-75
2023/09/21 08:31:47;;;;;;;2.97;1.77;;;20.00;1.00;;;;;;4994764;28;20193;-75
2023/09/21 08:34:13;;;;;;;4.60;1.93;;;20.00;1.00;;;;;;4996437;28;20256;-75
2023/09/21 08:36:38;;;;;;;3.13;2.10;;;20.10;1.00;;;;;;4996162;28;20652;-75
2023/09/21 08:39:05;;;;;;;2.93;1.63;;;20.20;1.00;;;;;;4994429;28;20189;-75
2023/09/21 08:41:32;;;;;;;4.60;2.07;;;20.30;1.00;;;;;;4994450;28;20681;-75
2023/09/21 08:43:59;;;;;;;5.17;2.00;;;20.50;1.00;;;;;;4994414;28;20177;-75
2023/09/21 08:46:26;;;;;;;4.40;1.63;;;20.60;1.00;;;;;;4994418;28;20257;-75
2023/09/21 08:48:55;;;;;;;4.70;1.80;;;20.70;1.00;;;;;;4995870;28;20209;-75
2023/09/21 08:51:22;;;;;;;5.43;1.70;;;20.70;1.00;;;;;;4995772;28;20189;-76
2023/09/21 08:53:51;;;;;;;6.97;2.20;;;20.90;1.00;;;;;;4994207;28;20240;-75
2023/09/21 08:56:18;;;;;;;4.13;1.70;;;21.00;1.00;;;;;;4995808;28;20166;-76
2023/09/21 08:58:46;;;;;;;3.13;1.60;;;21.10;1.00;;;;;;4995551;28;20236;-76
2023/09/21 09:01:12;;;;;;;3.80;2.00;;;21.20;1.00;;;;;;4995405;28;20193;-75
2023/09/21 09:03:39;;;;;;;7.13;2.00;;;21.30;99.90;;;;;;4995469;28;20170;-75
2023/09/21 09:06:05;;;;;;;5.03;1.83;;;21.20;99.90;;;;;;4995537;28;20205;-75
2023/09/21 09:08:30;;;;;;;5.60;2.00;;;21.30;99.90;;;;;;4994007;28;20170;-75
2023/09/21 09:10:56;;;;;;;4.23;2.03;;;21.40;1.00;;;;;;4993941;28;20174;-76
2023/09/21 09:13:32;;;;;;;4.13;2.10;;;21.40;1.00;;;;;;4993992;28;20260;-76
2023/09/21 09:15:59;;;;;;;3.23;1.73;;;21.50;99.90;;;;;;4995215;28;20166;-75
2023/09/21 09:18:28;;;;;;;6.33;1.97;;;21.60;99.90;;;;;;4993839;28;20188;-75
2023/09/21 09:20:56;;;;;;;4.83;2.07;;;21.60;99.90;;;;;;4994861;28;20568;-76
2023/09/21 09:23:22;;;;;;;3.20;1.73;;;21.60;99.90;;;;;;4995174;28;20182;-76
2023/09/21 09:25:49;;;;;;;3.60;2.00;;;21.60;99.90;;;;;;4995275;28;20537;-76
2023/09/21 09:28:16;;;;;;;5.13;2.07;;;21.70;99.90;;;;;;4995003;28;20177;-75
2023/09/21 09:30:41;;;;;;;3.00;1.90;;;21.70;99.90;;;;;;4994897;28;20165;-75
2023/09/21 09:33:12;;;;;;;5.27;1.83;;;21.70;99.90;;;;;;4995130;28;20665;-76
2023/09/21 09:35:41;;;;;;;5.53;1.80;;;21.70;99.90;;;;;;4994914;28;20157;-76
2023/09/21 09:38:11;;;;;;;4.60;1.93;;;21.70;99.90;;;;;;4993472;28;20248;-75
2023/09/21 09:40:40;;;;;;;3.93;1.90;;;21.80;99.90;;;;;;4993463;28;20185;-76
2023/09/21 09:43:06;;;;;;;3.77;1.90;;;21.90;99.90;;;;;;4994726;28;20197;-75
2023/09/21 09:45:34;;;;;;;2.73;1.70;;;21.90;99.90;;;;;;4994651;28;20389;-76
2023/09/21 09:48:03;;;;;;;2.07;1.60;;;22.00;99.90;;;;;;4994660;28;20170;-75
2023/09/21 09:50:33;;;;;;;4.90;2.40;;;21.80;99.90;;;;;;4994532;28;20170;-76
2023/09/21 09:53:13;;;;;;;4.27;1.90;;;21.90;99.90;;;;;;4994536;28;20561;-75
2023/09/21 09:55:42;;;;;;;4.00;2.13;;;21.90;99.90;;;;;;4994512;28;20161;-75
2023/09/21 09:58:08;;;;;;;3.63;1.83;;;21.90;99.90;;;;;;4994693;28;20166;-76
2023/09/21 10:00:35;;;;;;;4.23;2.00;;;21.80;99.90;;;;;;4993082;28;20184;-75
2023/09/21 10:03:03;;;;;;;4.77;1.87;;;21.80;99.90;;;;;;4994181;28;20547;-75
2023/09/21 10:05:30;;;;;;;6.80;2.20;;;21.80;99.90;;;;;;4994216;28;20193;-75
2023/09/21 10:08:07;;;;;;;2.53;1.60;;;21.80;99.90;;;;;;4992979;28;20228;-76
2023/09/21 10:10:49;;;;;;;4.73;2.17;;;21.70;99.90;;;;;;4994528;28;20161;-75
2023/09/21 10:13:16;;;;;;;4.67;2.03;;;21.70;99.90;;;;;;4994077;28;20161;-75
2023/09/21 10:15:43;;;;;;;3.20;2.20;;;21.70;99.90;;;;;;4992871;28;20177;-75
2023/09/21 10:18:09;;;;;;;4.10;2.00;;;21.80;99.90;;;;;;4994189;28;20253;-75
2023/09/21 10:20:36;;;;;;;2.30;1.80;;;21.70;1.00;;;;;;4992679;28;20209;-76
2023/09/21 10:23:09;;;;;;;4.20;2.10;;;21.80;1.00;;;;;;4992843;28;20743;-77
2023/09/21 10:25:45;;;;;;;3.97;2.20;;;21.70;1.00;;;;;;4994374;28;20661;-77
2023/09/21 10:28:28;;;;;;;4.13;1.87;;;21.80;1.00;;;;;;4993895;28;20173;-77
2023/09/21 10:31:11;;;;;;;8.50;2.20;;;21.80;1.00;;;;;;4993728;28;20210;-76
2023/09/21 10:33:48;;;;;;;3.23;2.27;;;21.80;1.00;;;;;;4994030;28;20221;-77
2023/09/21 10:36:23;;;;;;;4.87;1.97;;;21.90;1.00;;;;;;4994903;28;20296;-77
2023/09/21 10:39:10;;;;;;;3.90;1.90;;;21.90;1.00;;;;;;4994999;28;20196;-77
2023/09/21 10:41:41;;;;;;;4.13;1.70;;;22.00;99.90;;;;;;4993523;28;20224;-76
2023/09/21 10:44:07;;;;;;;2.47;1.80;;;22.00;99.90;;;;;;4993816;28;20162;-76
2023/09/21 10:46:40;;;;;;;2.90;1.57;;;22.00;99.90;;;;;;4992451;28;20174;-77
2023/09/21 10:49:11;;;;;;;6.87;1.90;;;22.00;99.90;;;;;;4993526;28;20170;-77
2023/09/21 10:51:40;;;;;;;3.00;1.83;;;22.00;99.90;;;;;;4993751;28;20692;-77
2023/09/21 10:54:13;;;;;;;4.63;1.57;;;22.10;99.90;;;;;;4992013;28;20181;-77
2023/09/21 10:56:39;;;;;;;5.07;1.57;;;22.00;99.90;;;;;;4993388;28;20223;-77
2023/09/21 10:59:07;;;;;;;6.87;2.03;;;22.10;99.90;;;;;;4993283;28;20648;-77
2023/09/21 11:01:33;;;;;;;4.00;2.00;;;22.20;99.90;;;;;;4991771;28;20201;-77
2023/09/21 11:03:58;;;;;;;2.97;1.93;;;22.10;99.90;;;;;;4993327;28;20166;-78
2023/09/21 11:06:25;;;;;;;2.87;1.90;;;22.00;99.90;;;;;;4995384;28;20173;-78
2023/09/21 11:08:52;;;;;;;3.20;1.70;;;22.00;99.90;;;;;;4994471;28;20232;-79
2023/09/21 11:11:21;;;;;;;3.83;1.67;;;22.00;99.90;;;;;;4995344;28;20204;-77
2023/09/21 11:13:54;;;;;;;3.00;1.57;;;21.90;99.90;;;;;;4994531;28;20174;-78
2023/09/21 11:16:21;;;;;;;2.07;1.37;;;21.80;99.90;;;;;;4995342;28;20676;-79
2023/09/21 11:18:48;;;;;;;8.77;1.90;;;21.80;99.90;;;;;;4995796;28;20185;-79
2023/09/21 11:21:16;;;;;;;2.50;1.60;;;21.80;99.90;;;;;;4996640;28;20189;-79
2023/09/21 11:23:42;;;;;;;2.67;1.50;;;21.70;99.90;;;;;;4994324;28;20173;-78
2023/09/21 11:26:11;;;;;;;8.47;1.60;;;21.60;99.90;;;;;;4995208;28;20190;-79
2023/09/21 11:28:37;;;;;;;3.87;1.60;;;21.60;99.90;;;;;;4995096;28;20174;-78
2023/09/21 11:31:05;;;;;;;3.70;1.37;;;21.50;99.90;;;;;;4996229;28;20563;-79
2023/09/21 11:33:34;;;;;;;3.07;1.70;;;21.40;1.00;;;;;;4994613;28;20244;-78
2023/09/21 11:35:59;;;;;;;3.57;1.60;;;21.50;1.00;;;;;;4995115;28;20170;-79
2023/09/21 11:38:25;;;;;;;2.60;1.80;;;21.50;1.00;;;;;;4994671;28;20277;-79
2023/09/21 11:40:51;;;;;;;2.00;1.73;;;21.40;1.00;;;;;;4996273;28;20621;-79
2023/09/21 11:43:17;;;;;;;2.80;1.70;;;21.30;1.00;;;;;;4996403;28;20197;-80
2023/09/21 11:45:49;;;;;;;2.90;1.57;;;21.30;1.00;;;;;;5000128;28;20264;-80
2023/09/21 11:48:15;;;;;;;2.87;1.80;;;21.30;1.00;;;;;;4998971;28;20241;-78
2023/09/21 11:50:44;;;;;;;2.07;1.50;;;21.20;1.00;;;;;;4998172;28;20264;-80
2023/09/21 11:53:09;;;;;;;5.80;1.83;;;21.20;1.00;;;;;;4999509;28;20673;-80
2023/09/21 11:55:36;;;;;;;6.93;2.23;;;21.00;1.00;;;;;;4999980;28;20189;-78
2023/09/21 11:58:15;;;;;;;2.47;1.43;;;21.10;1.00;;;;;;5000549;28;20237;-79
2023/09/21 12:00:49;;;;;;;2.30;1.57;;;21.00;1.00;;;;;;4998049;28;20166;-79
2023/09/21 12:03:16;;;;;;;4.53;1.77;;;21.10;1.00;;;;;;4999228;28;20185;-78
2023/09/21 12:05:45;;;;;;;4.63;1.87;;;21.00;1.00;;;;;;4997612;28;20205;-79
2023/09/21 12:08:14;;;;;;;4.07;2.00;;;20.90;1.00;;;;;;4998533;28;20661;-78
2023/09/21 12:10:47;;;;;;;3.30;1.60;;;21.00;1.00;;;;;;4999223;28;20166;-79
2023/09/21 12:13:13;;;;;;;2.13;1.73;;;20.90;1.00;;;;;;4999422;28;20621;-78
2023/09/21 12:15:40;;;;;;;3.17;1.67;;;20.90;1.00;;;;;;4998725;28;20252;-78
2023/09/21 12:18:07;;;;;;;6.03;1.77;;;20.90;1.00;;;;;;4998036;28;20173;-79
2023/09/21 12:20:33;;;;;;;4.20;1.87;;;20.90;1.00;;;;;;4999140;28;20273;-79
2023/09/21 12:22:58;;;;;;;6.10;1.67;;;20.80;1.00;;;;;;4998999;28;20233;-78
2023/09/21 12:25:26;;;;;;;5.53;1.90;;;20.80;1.00;;;;;;4998353;28;20287;-79
2023/09/21 12:31:14;;;;;;;4.00;1.53;;;20.80;1.00;;;;;;4998409;28;20193;-78
2023/09/21 12:33:41;;;;;;;10.60;1.60;;;20.70;1.00;;;;;;4996899;28;20174;-78
2023/09/21 12:36:07;;;;;;;3.47;1.80;;;20.70;1.00;;;;;;4999671;28;20178;-82
2023/09/21 12:38:33;;;;;;;4.03;1.90;;;20.70;1.00;;;;;;5001372;28;20273;-80
2023/09/21 12:40:59;;;;;;;3.20;1.97;;;20.60;1.00;;;;;;5002336;28;20200;-80
2023/09/21 12:43:25;;;;;;;3.53;1.70;;;20.70;1.00;;;;;;4998849;28;20178;-80
2023/09/21 12:45:53;;;;;;;2.80;2.20;;;20.60;1.00;;;;;;4999677;28;20633;-79
2023/09/21 12:48:19;;;;;;;5.70;1.60;;;20.70;1.00;;;;;;4999647;28;20196;-79
2023/09/21 12:50:44;;;;;;;2.93;1.63;;;20.70;1.00;;;;;;4999598;28;20633;-80
2023/09/21 12:53:10;;;;;;;4.33;1.33;;;20.70;1.00;;;;;;4999306;28;20661;-79
2023/09/21 12:55:39;;;;;;;5.83;2.00;;;20.70;1.00;;;;;;4998893;28;20184;-80
2023/09/21 12:58:06;;;;;;;2.80;1.80;;;20.70;1.00;;;;;;4998308;28;20688;-79
2023/09/21 13:00:32;;;;;;;1.90;1.70;;;20.70;1.00;;;;;;5010026;28;20237;-80